sensor_id;sensor_type;location;lat;lon;timestamp;pressure;altitude;pressure_sealevel;temperature;humidity
17785;BME280;9016;53.582;10.062;2022-11-20T00:01:06;101161.38;;;5.22;67.38
17785;BME280;9016;53.582;10.062;2022-11-20T00:03:37;101168.78;;;5.11;67.85
17785;BME280;9016;53.582;10.062;2022-11-20T00:06:08;101166.31;;;5.04;68.05
17785;BME280;9016;53.582;10.062;2022-11-20T00:08:37;101170.59;;;5.09;67.72
17785;BME280;9016;53.582;10.062;2022-11-20T00:11:06;101160.59;;;5.18;67.65
17785;BME280;9016;53.582;10.062;2022-11-20T00:13:41;101152.88;;;5.12;68.04
17785;BME280;9016;53.582;10.062;2022-11-20T00:16:11;101165.97;;;5.15;68.74
17785;BME280;9016;53.582;10.062;2022-11-20T00:18:39;101159.69;;;5.19;68.23
17785;BME280;9016;53.582;10.062;2022-11-20T00:21:12;101160.59;;;5.18;67.79
17785;BME280;9016;53.582;10.062;2022-11-20T00:23:41;101165.13;;;5.15;68.52
17785;BME280;9016;53.582;10.062;2022-11-20T00:26:11;101161.69;;;5.11;67.91
17785;BME280;9016;53.582;10.062;2022-11-20T00:28:42;101170.34;;;4.88;68.61
17785;BME280;9016;53.582;10.062;2022-11-20T00:31:12;101157.81;;;4.95;68.79
17785;BME280;9016;53.582;10.062;2022-11-20T00:33:41;101156.84;;;4.97;69.55
17785;BME280;9016;53.582;10.062;2022-11-20T00:36:13;101158.56;;;4.98;69.36
17785;BME280;9016;53.582;10.062;2022-11-20T00:38:41;101163.78;;;5.01;69.65
17785;BME280;9016;53.582;10.062;2022-11-20T00:41:12;101151.66;;;4.94;69.36
17785;BME280;9016;53.582;10.062;2022-11-20T00:43:41;101148.00;;;4.98;69.70
17785;BME280;9016;53.582;10.062;2022-11-20T00:46:12;101155.69;;;5.06;69.93
17785;BME280;9016;53.582;10.062;2022-11-20T00:48:41;101155.94;;;4.98;70.09
17785;BME280;9016;53.582;10.062;2022-11-20T00:51:12;101151.75;;;4.91;70.73
17785;BME280;9016;53.582;10.062;2022-11-20T00:53:43;101148.97;;;4.96;70.22
17785;BME280;9016;53.582;10.062;2022-11-20T00:56:13;101147.81;;;5.04;70.06
17785;BME280;9016;53.582;10.062;2022-11-20T00:58:43;101152.22;;;5.04;69.92
17785;BME280;9016;53.582;10.062;2022-11-20T01:01:13;101143.78;;;4.93;69.16
17785;BME280;9016;53.582;10.062;2022-11-20T01:03:43;101144.66;;;4.93;70.44
17785;BME280;9016;53.582;10.062;2022-11-20T01:06:15;101151.75;;;4.91;69.96
17785;BME280;9016;53.582;10.062;2022-11-20T01:08:44;101149.06;;;4.93;70.88
17785;BME280;9016;53.582;10.062;2022-11-20T01:11:14;101152.53;;;4.95;70.45
17785;BME280;9016;53.582;10.062;2022-11-20T01:13:46;101149.13;;;4.91;70.75
17785;BME280;9016;53.582;10.062;2022-11-20T01:16:17;101143.06;;;4.88;70.90
17785;BME280;9016;53.582;10.062;2022-11-20T01:18:48;101142.88;;;4.94;71.05
17785;BME280;9016;53.582;10.062;2022-11-20T01:21:21;101145.31;;;5.00;72.12
17785;BME280;9016;53.582;10.062;2022-11-20T01:23:50;101142.84;;;4.95;72.03
17785;BME280;9016;53.582;10.062;2022-11-20T01:26:20;101138.44;;;4.94;71.98
17785;BME280;9016;53.582;10.062;2022-11-20T01:28:50;101136.56;;;4.98;72.21
17785;BME280;9016;53.582;10.062;2022-11-20T01:31:19;101123.47;;;4.95;71.63
17785;BME280;9016;53.582;10.062;2022-11-20T01:33:52;101118.13;;;4.96;71.69
17785;BME280;9016;53.582;10.062;2022-11-20T01:36:24;101118.13;;;4.96;71.74
17785;BME280;9016;53.582;10.062;2022-11-20T01:38:53;101106.69;;;4.97;72.17
17785;BME280;9016;53.582;10.062;2022-11-20T01:41:23;101109.38;;;4.96;72.36
17785;BME280;9016;53.582;10.062;2022-11-20T01:44:10;101106.81;;;4.93;73.38
17785;BME280;9016;53.582;10.062;2022-11-20T01:46:42;101110.97;;;5.01;73.06
17785;BME280;9016;53.582;10.062;2022-11-20T01:49:17;101101.47;;;4.96;72.93
17785;BME280;9016;53.582;10.062;2022-11-20T01:51:56;101104.94;;;4.96;73.31
17785;BME280;9016;53.582;10.062;2022-11-20T01:54:30;101105.56;;;5.04;73.33
17785;BME280;9016;53.582;10.062;2022-11-20T01:57:03;101103.63;;;5.10;73.99
17785;BME280;9016;53.582;10.062;2022-11-20T01:59:35;101106.63;;;4.99;73.74
17785;BME280;9016;53.582;10.062;2022-11-20T02:02:07;101107.53;;;4.98;74.07
17785;BME280;9016;53.582;10.062;2022-11-20T02:04:36;101097.88;;;4.97;74.94
17785;BME280;9016;53.582;10.062;2022-11-20T02:07:09;101091.72;;;4.96;74.63
17785;BME280;9016;53.582;10.062;2022-11-20T02:09:37;101097.00;;;4.96;74.94
17785;BME280;9016;53.582;10.062;2022-11-20T02:12:05;101093.47;;;4.97;74.16
17785;BME280;9016;53.582;10.062;2022-11-20T02:14:54;101090.06;;;4.94;74.24
17785;BME280;9016;53.582;10.062;2022-11-20T02:17:21;101093.78;;;4.88;74.45
17785;BME280;9016;53.582;10.062;2022-11-20T02:19:49;101083.91;;;4.93;74.93
17785;BME280;9016;53.582;10.062;2022-11-20T02:22:27;101090.22;;;4.89;75.03
17785;BME280;9016;53.582;10.062;2022-11-20T02:24:59;101088.38;;;4.91;74.47
17785;BME280;9016;53.582;10.062;2022-11-20T02:27:30;101081.47;;;4.87;75.73
17785;BME280;9016;53.582;10.062;2022-11-20T02:30:01;101084.78;;;4.94;75.46
17785;BME280;9016;53.582;10.062;2022-11-20T02:32:31;101083.81;;;4.96;75.09
17785;BME280;9016;53.582;10.062;2022-11-20T02:35:07;101079.75;;;4.86;74.81
17785;BME280;9016;53.582;10.062;2022-11-20T02:37:38;101077.16;;;4.85;75.00
17785;BME280;9016;53.582;10.062;2022-11-20T02:40:10;101077.16;;;4.85;74.96
17785;BME280;9016;53.582;10.062;2022-11-20T02:42:38;101076.94;;;4.91;75.55
17785;BME280;9016;53.582;10.062;2022-11-20T02:45:07;101079.75;;;4.86;74.87
17785;BME280;9016;53.582;10.062;2022-11-20T02:47:37;101080.56;;;4.88;74.64
17785;BME280;9016;53.582;10.062;2022-11-20T02:50:06;101073.34;;;4.93;74.47
17785;BME280;9016;53.582;10.062;2022-11-20T02:52:34;101066.34;;;4.92;74.50
17785;BME280;9016;53.582;10.062;2022-11-20T02:55:02;101057.56;;;4.92;74.58
17785;BME280;9016;53.582;10.062;2022-11-20T02:57:32;101071.25;;;4.77;74.43
17785;BME280;9016;53.582;10.062;2022-11-20T03:00:00;101058.94;;;4.77;74.76
17785;BME280;9016;53.582;10.062;2022-11-20T03:02:29;101058.06;;;4.77;75.21
17785;BME280;9016;53.582;10.062;2022-11-20T03:04:58;101058.69;;;4.85;75.51
17785;BME280;9016;53.582;10.062;2022-11-20T03:07:26;101059.22;;;4.68;75.18
17785;BME280;9016;53.582;10.062;2022-11-20T03:10:06;101047.56;;;4.75;75.15
17785;BME280;9016;53.582;10.062;2022-11-20T03:12:36;101057.09;;;4.79;75.21
17785;BME280;9016;53.582;10.062;2022-11-20T03:15:05;101061.59;;;4.76;74.27
17785;BME280;9016;53.582;10.062;2022-11-20T03:17:33;101059.63;;;4.82;75.16
17785;BME280;9016;53.582;10.062;2022-11-20T03:20:02;101059.88;;;4.75;75.33
17785;BME280;9016;53.582;10.062;2022-11-20T03:22:30;101059.00;;;4.74;75.19
17785;BME280;9016;53.582;10.062;2022-11-20T03:24:58;101059.78;;;4.78;75.62
17785;BME280;9016;53.582;10.062;2022-11-20T03:27:26;101065.91;;;4.78;75.09
17785;BME280;9016;53.582;10.062;2022-11-20T03:29:55;101068.56;;;4.78;74.93
17785;BME280;9016;53.582;10.062;2022-11-20T03:32:23;101056.22;;;4.79;75.56
17785;BME280;9016;53.582;10.062;2022-11-20T03:34:51;101064.22;;;4.76;75.38
17785;BME280;9016;53.582;10.062;2022-11-20T03:37:19;101054.47;;;4.79;75.26
17785;BME280;9016;53.582;10.062;2022-11-20T03:39:47;101050.75;;;4.85;75.13
17785;BME280;9016;53.582;10.062;2022-11-20T03:42:15;101056.56;;;4.96;74.70
17785;BME280;9016;53.582;10.062;2022-11-20T03:44:58;101053.63;;;5.05;74.38
17785;BME280;9016;53.582;10.062;2022-11-20T03:47:26;101055.50;;;5.01;73.77
17785;BME280;9016;53.582;10.062;2022-11-20T03:49:55;101044.25;;;4.95;74.53
17785;BME280;9016;53.582;10.062;2022-11-20T03:52:22;101041.69;;;4.93;74.18
17785;BME280;9016;53.582;10.062;2022-11-20T03:54:51;101041.88;;;4.87;73.01
17785;BME280;9016;53.582;10.062;2022-11-20T03:57:18;101038.84;;;4.99;74.33
17785;BME280;9016;53.582;10.062;2022-11-20T03:59:46;101023.31;;;4.89;73.84
17785;BME280;9016;53.582;10.062;2022-11-20T04:02:18;101032.81;;;4.96;74.05
17785;BME280;9016;53.582;10.062;2022-11-20T04:04:46;101026.53;;;4.98;73.21
17785;BME280;9016;53.582;10.062;2022-11-20T04:07:14;101029.38;;;4.92;73.64
17785;BME280;9016;53.582;10.062;2022-11-20T04:09:42;101033.69;;;4.95;73.42
17785;BME280;9016;53.582;10.062;2022-11-20T04:12:10;101030.94;;;4.99;73.38
17785;BME280;9016;53.582;10.062;2022-11-20T04:14:38;101031.06;;;4.95;74.24
17785;BME280;9016;53.582;10.062;2022-11-20T04:17:06;101033.94;;;4.87;73.83
17785;BME280;9016;53.582;10.062;2022-11-20T04:19:36;101029.44;;;4.91;74.35
17785;BME280;9016;53.582;10.062;2022-11-20T04:22:06;101029.38;;;4.92;73.83
17785;BME280;9016;53.582;10.062;2022-11-20T04:24:35;101020.84;;;4.84;73.40
17785;BME280;9016;53.582;10.062;2022-11-20T04:27:04;101030.19;;;4.94;74.14
17785;BME280;9016;53.582;10.062;2022-11-20T04:29:32;101029.38;;;4.92;73.97
17785;BME280;9016;53.582;10.062;2022-11-20T04:32:00;101025.16;;;4.87;73.79
17785;BME280;9016;53.582;10.062;2022-11-20T04:34:30;101027.03;;;4.83;74.68
17785;BME280;9016;53.582;10.062;2022-11-20T04:37:00;101019.88;;;4.87;74.52
17785;BME280;9016;53.582;10.062;2022-11-20T04:39:28;101029.78;;;4.80;74.96
17785;BME280;9016;53.582;10.062;2022-11-20T04:41:56;101024.44;;;4.82;74.88
17785;BME280;9016;53.582;10.062;2022-11-20T04:44:38;101021.56;;;4.89;74.66
17785;BME280;9016;53.582;10.062;2022-11-20T04:47:06;101022.56;;;4.85;74.48
17785;BME280;9016;53.582;10.062;2022-11-20T04:49:33;101022.72;;;4.81;75.06
17785;BME280;9016;53.582;10.062;2022-11-20T04:52:03;101016.44;;;4.85;74.83
17785;BME280;9016;53.582;10.062;2022-11-20T04:54:31;101019.88;;;4.87;75.55
17785;BME280;9016;53.582;10.062;2022-11-20T04:56:59;101021.84;;;4.80;75.63
17785;BME280;9016;53.582;10.062;2022-11-20T04:59:27;101015.94;;;4.74;75.45
17785;BME280;9016;53.582;10.062;2022-11-20T05:01:55;101015.63;;;4.83;75.72
17785;BME280;9016;53.582;10.062;2022-11-20T05:04:23;101007.03;;;4.76;75.47
17785;BME280;9016;53.582;10.062;2022-11-20T05:06:51;100989.78;;;4.66;75.75
17785;BME280;9016;53.582;10.062;2022-11-20T05:09:21;101005.16;;;4.80;75.67
17785;BME280;9016;53.582;10.062;2022-11-20T05:11:49;100997.34;;;4.77;75.55
17785;BME280;9016;53.582;10.062;2022-11-20T05:14:17;100998.34;;;4.73;74.54
17785;BME280;9016;53.582;10.062;2022-11-20T05:16:45;100999.16;;;4.75;75.52
17785;BME280;9016;53.582;10.062;2022-11-20T05:19:13;100984.09;;;4.78;75.30
17785;BME280;9016;53.582;10.062;2022-11-20T05:21:42;100984.66;;;4.88;74.42
17785;BME280;9016;53.582;10.062;2022-11-20T05:24:09;100984.66;;;4.88;75.51
17785;BME280;9016;53.582;10.062;2022-11-20T05:26:39;100976.78;;;4.86;75.08
17785;BME280;9016;53.582;10.062;2022-11-20T05:29:10;100981.25;;;4.84;75.03
17785;BME280;9016;53.582;10.062;2022-11-20T05:31:39;100981.25;;;4.84;75.85
17785;BME280;9016;53.582;10.062;2022-11-20T05:34:07;100981.16;;;4.87;74.81
17785;BME280;9016;53.582;10.062;2022-11-20T05:36:35;100980.38;;;4.84;75.83
17785;BME280;9016;53.582;10.062;2022-11-20T05:39:03;100977.69;;;4.85;74.98
17785;BME280;9016;53.582;10.062;2022-11-20T05:41:32;100975.88;;;4.87;74.79
17785;BME280;9016;53.582;10.062;2022-11-20T05:44:02;100965.78;;;4.74;75.66
17785;BME280;9016;53.582;10.062;2022-11-20T05:46:30;100976.16;;;4.78;75.18
17785;BME280;9016;53.582;10.062;2022-11-20T05:48:58;100970.78;;;4.81;75.24
17785;BME280;9016;53.582;10.062;2022-11-20T05:51:26;100962.84;;;4.83;74.79
17785;BME280;9016;53.582;10.062;2022-11-20T05:53:56;100962.16;;;4.76;75.27
17785;BME280;9016;53.582;10.062;2022-11-20T05:56:25;100968.19;;;4.80;75.96
17785;BME280;9016;53.582;10.062;2022-11-20T05:58:56;100962.22;;;4.75;74.96
17785;BME280;9016;53.582;10.062;2022-11-20T06:01:26;100957.06;;;4.70;75.95
17785;BME280;9016;53.582;10.062;2022-11-20T06:03:54;100967.78;;;4.66;75.99
17785;BME280;9016;53.582;10.062;2022-11-20T06:06:22;100960.75;;;4.66;75.64
17785;BME280;9016;53.582;10.062;2022-11-20T06:08:51;100960.78;;;4.65;76.48
17785;BME280;9016;53.582;10.062;2022-11-20T06:11:19;100961.50;;;4.70;76.07
17785;BME280;9016;53.582;10.062;2022-11-20T06:13:47;100961.00;;;4.59;76.00
17785;BME280;9016;53.582;10.062;2022-11-20T06:16:18;100966.91;;;4.65;75.54
17785;BME280;9016;53.582;10.062;2022-11-20T06:18:49;100958.94;;;4.68;76.23
17785;BME280;9016;53.582;10.062;2022-11-20T06:21:19;100963.63;;;4.59;75.56
17785;BME280;9016;53.582;10.062;2022-11-20T06:23:48;100966.09;;;4.63;76.80
17785;BME280;9016;53.582;10.062;2022-11-20T06:26:18;100970.50;;;4.64;76.43
17785;BME280;9016;53.582;10.062;2022-11-20T06:28:46;100963.09;;;4.75;75.91
17785;BME280;9016;53.582;10.062;2022-11-20T06:31:17;100963.94;;;4.76;75.90
17785;BME280;9016;53.582;10.062;2022-11-20T06:33:45;100973.41;;;4.81;75.54
17785;BME280;9016;53.582;10.062;2022-11-20T06:36:16;100974.09;;;4.88;75.65
17785;BME280;9016;53.582;10.062;2022-11-20T06:38:44;100965.66;;;4.77;74.97
17785;BME280;9016;53.582;10.062;2022-11-20T06:41:14;100957.25;;;4.66;75.34
17785;BME280;9016;53.582;10.062;2022-11-20T06:43:46;100965.22;;;4.64;75.93
17785;BME280;9016;53.582;10.062;2022-11-20T06:46:15;100968.50;;;4.71;75.93
17785;BME280;9016;53.582;10.062;2022-11-20T06:48:45;100961.41;;;4.73;76.42
17785;BME280;9016;53.582;10.062;2022-11-20T06:51:16;100961.50;;;4.70;75.70
17785;BME280;9016;53.582;10.062;2022-11-20T06:53:44;100959.19;;;4.59;74.93
17785;BME280;9016;53.582;10.062;2022-11-20T06:56:12;100961.69;;;4.64;75.66
17785;BME280;9016;53.582;10.062;2022-11-20T06:58:40;100956.66;;;4.56;76.31
17785;BME280;9016;53.582;10.062;2022-11-20T07:01:12;100954.13;;;4.53;76.13
17785;BME280;9016;53.582;10.062;2022-11-20T07:03:41;100958.66;;;4.50;76.62
17785;BME280;9016;53.582;10.062;2022-11-20T07:06:10;100957.03;;;4.46;76.11
17785;BME280;9016;53.582;10.062;2022-11-20T07:08:39;100965.94;;;4.42;76.12
17785;BME280;9016;53.582;10.062;2022-11-20T07:11:07;100954.69;;;4.37;76.22
17785;BME280;9016;53.582;10.062;2022-11-20T07:13:35;100963.72;;;4.28;77.20
17785;BME280;9016;53.582;10.062;2022-11-20T07:16:05;100966.41;;;4.27;77.29
17785;BME280;9016;53.582;10.062;2022-11-20T07:18:34;100970.44;;;4.38;77.85
17785;BME280;9016;53.582;10.062;2022-11-20T07:21:03;100960.78;;;4.39;77.21
17785;BME280;9016;53.582;10.062;2022-11-20T07:23:32;100958.22;;;4.36;77.41
17785;BME280;9016;53.582;10.062;2022-11-20T07:26:04;100958.09;;;4.40;76.81
17785;BME280;9016;53.582;10.062;2022-11-20T07:28:32;100957.50;;;4.31;76.55
17785;BME280;9016;53.582;10.062;2022-11-20T07:31:01;100958.72;;;4.19;77.38
17785;BME280;9016;53.582;10.062;2022-11-20T07:33:30;100964.09;;;4.16;78.30
17785;BME280;9016;53.582;10.062;2022-11-20T07:35:58;100962.00;;;4.27;77.96
17785;BME280;9016;53.582;10.062;2022-11-20T07:38:27;100959.50;;;4.23;77.07
17785;BME280;9016;53.582;10.062;2022-11-20T07:40:55;100959.66;;;4.18;76.82
17785;BME280;9016;53.582;10.062;2022-11-20T07:43:25;100967.22;;;4.29;77.05
17785;BME280;9016;53.582;10.062;2022-11-20T07:45:54;100965.69;;;4.22;77.96
17785;BME280;9016;53.582;10.062;2022-11-20T07:48:22;100953.09;;;4.31;76.85
17785;BME280;9016;53.582;10.062;2022-11-20T07:50:53;100955.34;;;4.43;77.10
17785;BME280;9016;53.582;10.062;2022-11-20T07:53:22;100955.03;;;4.52;76.12
17785;BME280;9016;53.582;10.062;2022-11-20T07:55:50;100957.97;;;4.43;76.16
17785;BME280;9016;53.582;10.062;2022-11-20T07:58:19;100954.69;;;4.37;76.55
17785;BME280;9016;53.582;10.062;2022-11-20T08:00:48;100953.41;;;4.48;76.71
17785;BME280;9016;53.582;10.062;2022-11-20T08:03:17;100955.03;;;4.52;75.65
17785;BME280;9016;53.582;10.062;2022-11-20T08:05:50;100955.34;;;4.69;76.21
17785;BME280;9016;53.582;10.062;2022-11-20T08:08:19;100952.59;;;4.72;75.47
17785;BME280;9016;53.582;10.062;2022-11-20T08:10:47;100949.84;;;4.77;74.22
17785;BME280;9016;53.582;10.062;2022-11-20T08:13:15;100957.38;;;4.87;75.23
17785;BME280;9016;53.582;10.062;2022-11-20T08:16:02;100952.16;;;4.86;74.37
17785;BME280;9016;53.582;10.062;2022-11-20T08:18:30;100949.25;;;4.93;73.82
17785;BME280;9016;53.582;10.062;2022-11-20T08:21:02;100958.88;;;4.96;74.06
17785;BME280;9016;53.582;10.062;2022-11-20T08:23:30;100949.97;;;4.98;72.97
17785;BME280;9016;53.582;10.062;2022-11-20T08:25:58;100953.97;;;5.10;73.44
17785;BME280;9016;53.582;10.062;2022-11-20T08:28:25;100954.03;;;5.09;73.15
17785;BME280;9016;53.582;10.062;2022-11-20T08:30:58;100957.81;;;5.01;72.61
17785;BME280;9016;53.582;10.062;2022-11-20T08:33:28;100951.38;;;5.09;72.85
17785;BME280;9016;53.582;10.062;2022-11-20T08:35:59;100957.69;;;5.04;72.71
17785;BME280;9016;53.582;10.062;2022-11-20T08:38:26;100955.59;;;5.14;72.14
17785;BME280;9016;53.582;10.062;2022-11-20T08:40:56;100958.28;;;5.13;72.70
17785;BME280;9016;53.582;10.062;2022-11-20T08:43:41;100966.25;;;5.11;72.18
17785;BME280;9016;53.582;10.062;2022-11-20T08:46:09;100953.84;;;5.13;71.22
17785;BME280;9016;53.582;10.062;2022-11-20T08:48:38;100959.75;;;5.21;71.79
17785;BME280;9016;53.582;10.062;2022-11-20T08:51:06;100961.16;;;5.31;72.09
17785;BME280;9016;53.582;10.062;2022-11-20T08:53:34;100957.25;;;5.41;70.24
17785;BME280;9016;53.582;10.062;2022-11-20T08:56:02;100963.56;;;5.37;71.71
17785;BME280;9016;53.582;10.062;2022-11-20T08:58:31;100958.06;;;5.43;71.15
17785;BME280;9016;53.582;10.062;2022-11-20T09:01:19;100957.03;;;5.47;71.86
17785;BME280;9016;53.582;10.062;2022-11-20T09:03:49;100962.53;;;5.41;71.83
17785;BME280;9016;53.582;10.062;2022-11-20T09:06:18;100965.38;;;5.37;71.44
17785;BME280;9016;53.582;10.062;2022-11-20T09:08:46;100968.28;;;5.29;72.48
17785;BME280;9016;53.582;10.062;2022-11-20T09:11:14;100962.13;;;5.29;72.26
17785;BME280;9016;53.582;10.062;2022-11-20T09:13:42;100965.78;;;5.25;71.89
17785;BME280;9016;53.582;10.062;2022-11-20T09:16:09;100967.53;;;5.26;73.46
17785;BME280;9016;53.582;10.062;2022-11-20T09:18:38;100963.06;;;5.26;74.13
17785;BME280;9016;53.582;10.062;2022-11-20T09:21:10;100965.78;;;5.25;74.02
17785;BME280;9016;53.582;10.062;2022-11-20T09:23:39;100963.31;;;5.20;74.14
17785;BME280;9016;53.582;10.062;2022-11-20T09:26:09;100968.63;;;5.19;74.95
17785;BME280;9016;53.582;10.062;2022-11-20T09:28:38;100962.44;;;5.20;75.47
17785;BME280;9016;53.582;10.062;2022-11-20T09:31:07;100966.91;;;5.18;74.85
17785;BME280;9016;53.582;10.062;2022-11-20T09:33:35;100959.41;;;5.05;76.09
17785;BME280;9016;53.582;10.062;2022-11-20T09:36:04;100957.56;;;5.07;76.64
17785;BME280;9016;53.582;10.062;2022-11-20T09:38:33;100965.81;;;4.98;76.56
17785;BME280;9016;53.582;10.062;2022-11-20T09:41:03;100959.94;;;4.90;77.08
17785;BME280;9016;53.582;10.062;2022-11-20T09:43:40;100962.91;;;5.06;76.67
17785;BME280;9016;53.582;10.062;2022-11-20T09:46:18;100966.03;;;5.17;76.35
17785;BME280;9016;53.582;10.062;2022-11-20T09:49:09;100971.50;;;5.13;76.25
17785;BME280;9016;53.582;10.062;2022-11-20T09:51:46;100962.75;;;5.35;77.32
17785;BME280;9016;53.582;10.062;2022-11-20T09:54:21;100963.22;;;5.46;76.32
17785;BME280;9016;53.582;10.062;2022-11-20T09:56:53;100971.31;;;5.66;76.31
17785;BME280;9016;53.582;10.062;2022-11-20T09:59:33;100961.00;;;5.83;75.12
17785;BME280;9016;53.582;10.062;2022-11-20T10:02:03;100965.53;;;5.80;74.49
17785;BME280;9016;53.582;10.062;2022-11-20T10:04:36;100965.59;;;5.54;74.66
17785;BME280;9016;53.582;10.062;2022-11-20T10:07:12;100966.03;;;5.17;74.64
17785;BME280;9016;53.582;10.062;2022-11-20T10:09:59;100971.19;;;5.22;75.83
17785;BME280;9016;53.582;10.062;2022-11-20T10:12:36;100963.47;;;5.16;75.61
17785;BME280;9016;53.582;10.062;2022-11-20T10:15:22;100963.78;;;5.56;75.47
17785;BME280;9016;53.582;10.062;2022-11-20T10:18:09;100964.66;;;5.79;73.17
17785;BME280;9016;53.582;10.062;2022-11-20T10:20:46;100959.81;;;5.67;73.80
17785;BME280;9016;53.582;10.062;2022-11-20T10:23:34;100953.66;;;5.67;73.92
17785;BME280;9016;53.582;10.062;2022-11-20T10:26:17;100955.91;;;5.77;73.37
17785;BME280;9016;53.582;10.062;2022-11-20T10:28:56;100959.25;;;5.84;73.46
17785;BME280;9016;53.582;10.062;2022-11-20T10:31:34;100950.88;;;5.94;73.65
17785;BME280;9016;53.582;10.062;2022-11-20T10:34:06;100949.34;;;5.89;72.73
17785;BME280;9016;53.582;10.062;2022-11-20T10:36:52;100943.09;;;5.91;71.68
17785;BME280;9016;53.582;10.062;2022-11-20T10:39:29;100951.19;;;5.87;71.86
17785;BME280;9016;53.582;10.062;2022-11-20T10:42:01;100950.75;;;5.74;71.19
17785;BME280;9016;53.582;10.062;2022-11-20T10:44:29;100948.16;;;5.73;72.93
17785;BME280;9016;53.582;10.062;2022-11-20T10:47:22;100936.53;;;5.54;71.12
17785;BME280;9016;53.582;10.062;2022-11-20T10:49:52;100936.38;;;5.58;72.48
17785;BME280;9016;53.582;10.062;2022-11-20T10:52:28;100936.78;;;5.71;71.90
17785;BME280;9016;53.582;10.062;2022-11-20T10:55:06;100939.00;;;5.81;72.81
17785;BME280;9016;53.582;10.062;2022-11-20T10:57:51;100939.50;;;5.92;70.51
17785;BME280;9016;53.582;10.062;2022-11-20T11:00:21;100936.56;;;6.00;70.71
17785;BME280;9016;53.582;10.062;2022-11-20T11:02:50;100945.59;;;5.71;70.10
17785;BME280;9016;53.582;10.062;2022-11-20T11:05:31;100941.88;;;5.52;71.94
17785;BME280;9016;53.582;10.062;2022-11-20T11:08:02;100939.78;;;5.62;71.17
17785;BME280;9016;53.582;10.062;2022-11-20T11:10:35;100918.97;;;5.53;70.97
17785;BME280;9016;53.582;10.062;2022-11-20T11:13:06;100932.06;;;5.56;71.48
17785;BME280;9016;53.582;10.062;2022-11-20T11:15:39;100919.22;;;5.70;71.60
17785;BME280;9016;53.582;10.062;2022-11-20T11:18:09;100912.84;;;5.75;71.67
17785;BME280;9016;53.582;10.062;2022-11-20T11:20:38;100926.63;;;5.60;72.18
17785;BME280;9016;53.582;10.062;2022-11-20T11:23:31;100923.16;;;5.58;70.78
17785;BME280;9016;53.582;10.062;2022-11-20T11:26:01;100911.28;;;5.70;70.64
17785;BME280;9016;53.582;10.062;2022-11-20T11:28:32;100914.25;;;5.61;70.51
17785;BME280;9016;53.582;10.062;2022-11-20T11:31:00;100914.75;;;5.47;71.18
17785;BME280;9016;53.582;10.062;2022-11-20T11:33:29;100914.59;;;5.52;70.33
17785;BME280;9016;53.582;10.062;2022-11-20T11:35:59;100914.59;;;5.52;71.62
17785;BME280;9016;53.582;10.062;2022-11-20T11:38:30;100912.28;;;5.43;72.14
17785;BME280;9016;53.582;10.062;2022-11-20T11:41:01;100911.25;;;5.47;71.69
17785;BME280;9016;53.582;10.062;2022-11-20T11:43:33;100925.28;;;5.49;69.78
17785;BME280;9016;53.582;10.062;2022-11-20T11:46:28;100924.13;;;5.56;70.38
17785;BME280;9016;53.582;10.062;2022-11-20T11:48:59;100919.19;;;5.47;69.23
17785;BME280;9016;53.582;10.062;2022-11-20T11:51:34;100912.47;;;5.38;68.88
17785;BME280;9016;53.582;10.062;2022-11-20T11:54:15;100910.72;;;5.37;69.00
17785;BME280;9016;53.582;10.062;2022-11-20T11:56:45;100916.31;;;5.53;70.04
17785;BME280;9016;53.582;10.062;2022-11-20T11:59:24;100908.91;;;5.62;68.35
17785;BME280;9016;53.582;10.062;2022-11-20T12:01:57;100914.09;;;5.65;68.50
17785;BME280;9016;53.582;10.062;2022-11-20T12:04:40;100906.09;;;5.67;68.38
17785;BME280;9016;53.582;10.062;2022-11-20T12:07:13;100914.88;;;5.67;67.88
17785;BME280;9016;53.582;10.062;2022-11-20T12:10:04;100909.06;;;5.58;69.31
17785;BME280;9016;53.582;10.062;2022-11-20T12:12:36;100908.41;;;5.53;69.18
17785;BME280;9016;53.582;10.062;2022-11-20T12:15:10;100909.81;;;5.61;67.49
17785;BME280;9016;53.582;10.062;2022-11-20T12:17:39;100901.75;;;5.66;69.57
17785;BME280;9016;53.582;10.062;2022-11-20T12:20:11;100905.00;;;5.72;69.06
17785;BME280;9016;53.582;10.062;2022-11-20T12:22:47;100902.13;;;5.78;68.34
17785;BME280;9016;53.582;10.062;2022-11-20T12:25:22;100901.06;;;5.84;68.28
17785;BME280;9016;53.582;10.062;2022-11-20T12:28:10;100905.88;;;5.96;67.89
17785;BME280;9016;53.582;10.062;2022-11-20T12:30:51;100894.19;;;6.01;67.45
17785;BME280;9016;53.582;10.062;2022-11-20T12:33:36;100899.09;;;6.12;66.85
17785;BME280;9016;53.582;10.062;2022-11-20T12:36:19;100893.88;;;6.09;66.45
17785;BME280;9016;53.582;10.062;2022-11-20T12:39:02;100877.41;;;6.03;66.74
17785;BME280;9016;53.582;10.062;2022-11-20T12:41:48;100879.25;;;6.22;66.14
17785;BME280;9016;53.582;10.062;2022-11-20T12:48:05;100868.88;;;6.18;66.91
17785;BME280;9016;53.582;10.062;2022-11-20T12:50:46;100873.16;;;6.20;65.92
17785;BME280;9016;53.582;10.062;2022-11-20T12:53:44;100867.63;;;6.26;66.49
17785;BME280;9016;53.582;10.062;2022-11-20T12:56:27;100862.03;;;6.12;65.56
17785;BME280;9016;53.582;10.062;2022-11-20T12:59:09;100870.28;;;6.05;66.70
17785;BME280;9016;53.582;10.062;2022-11-20T13:01:46;100874.09;;;5.97;66.34
17785;BME280;9016;53.582;10.062;2022-11-20T13:04:30;100869.78;;;5.95;66.08
17785;BME280;9016;53.582;10.062;2022-11-20T13:07:02;100873.00;;;6.03;66.98
17785;BME280;9016;53.582;10.062;2022-11-20T13:09:34;100867.88;;;6.20;66.70
17785;BME280;9016;53.582;10.062;2022-11-20T13:12:08;100865.16;;;6.22;66.52
17785;BME280;9016;53.582;10.062;2022-11-20T13:14:42;100872.50;;;6.15;66.34
17785;BME280;9016;53.582;10.062;2022-11-20T13:17:17;100862.28;;;6.06;66.85
17785;BME280;9016;53.582;10.062;2022-11-20T13:19:52;100864.41;;;6.18;66.46
17785;BME280;9016;53.582;10.062;2022-11-20T13:22:25;100864.91;;;6.28;66.34
17785;BME280;9016;53.582;10.062;2022-11-20T13:24:54;100865.94;;;6.25;66.20
17785;BME280;9016;53.582;10.062;2022-11-20T13:27:23;100858.88;;;6.24;65.95